Time;durP1;ratioP1;P1;durP2;ratioP2;P2;SDS_P1;SDS_P2;PMS_P1;PMS_P2;Temp;Humidity;BMP_temperature;BMP_pressure;BME280_temperature;BME280_humidity;BME280_pressure;Samples;Min_cycle;Max_cycle;Signal;HPM_P1;HPM_P2
2022/05/26 00:01:48;;;;;;;;;0.75;0.75;;;;;18.14;58.36;101963.06;5061289;28;45325;-55
2022/05/26 00:04:13;;;;;;;;;1.25;1.25;;;;;18.10;58.25;101961.59;5060139;28;45879;-55
2022/05/26 00:06:38;;;;;;;;;1.00;1.00;;;;;18.07;58.43;101957.31;5061294;28;45367;-54
2022/05/26 00:09:04;;;;;;;;;2.75;1.00;;;;;18.07;58.34;101957.31;5061713;28;45291;-56
2022/05/26 00:11:33;;;;;;;;;1.00;1.00;;;;;18.08;58.59;101953.66;5063973;28;45306;-55
2022/05/26 00:14:07;;;;;;;;;1.00;1.00;;;;;18.08;58.67;101959.00;5061429;28;45291;-55
2022/05/26 00:16:38;;;;;;;;;2.00;1.00;;;;;18.07;58.69;101956.44;5060878;28;45255;-55
2022/05/26 00:19:04;;;;;;;;;2.00;1.00;;;;;18.03;58.85;101960.31;5061426;28;45294;-55
2022/05/26 00:21:29;;;;;;;;;2.00;1.00;;;;;18.04;58.70;101968.19;5061069;28;45462;-52
2022/05/26 00:23:56;;;;;;;;;2.00;0.00;;;;;18.04;58.67;101967.34;5061202;28;45469;-53
2022/05/26 00:26:22;;;;;;;;;1.00;0.50;;;;;18.02;58.88;101959.47;5061058;28;45474;-53
2022/05/26 00:28:47;;;;;;;;;1.00;1.00;;;;;18.00;58.71;101961.38;5061276;28;45416;-54
2022/05/26 00:31:13;;;;;;;;;0.75;0.75;;;;;17.98;58.97;101965.13;5060836;28;45525;-55
2022/05/26 00:33:38;;;;;;;;;1.50;1.00;;;;;17.96;58.84;101973.22;5060894;28;45372;-55
2022/05/26 00:36:06;;;;;;;;;2.00;1.00;;;;;17.93;58.65;101968.13;5061103;28;45274;-55
2022/05/26 00:38:32;;;;;;;;;0.00;0.00;;;;;17.90;58.51;101970.13;5061298;28;45398;-55
2022/05/26 00:41:12;;;;;;;;;0.00;0.00;;;;;17.85;58.91;101971.31;5060772;28;45256;-54
2022/05/26 00:43:45;;;;;;;;;0.75;0.00;;;;;17.83;58.78;101967.91;5060935;28;45430;-55
2022/05/26 00:46:21;;;;;;;;;2.00;1.00;;;;;17.83;58.60;101975.03;5060899;28;45412;-55
2022/05/26 00:48:54;;;;;;;;;0.00;0.00;;;;;17.82;58.88;101971.53;5060944;28;45452;-52
2022/05/26 00:51:26;;;;;;;;;0.00;0.00;;;;;17.81;58.73;101975.16;5060987;28;45328;-55
2022/05/26 00:53:56;;;;;;;;;0.00;0.00;;;;;17.83;58.75;101980.38;5060683;28;45379;-52
2022/05/26 00:56:33;;;;;;;;;2.00;1.00;;;;;17.83;58.68;101981.22;5060813;28;45332;-55
2022/05/26 00:59:14;;;;;;;;;2.25;1.75;;;;;17.83;58.73;101975.03;5060521;28;45351;-53
2022/05/26 01:01:40;;;;;;;;;0.25;0.25;;;;;17.83;58.57;101983.88;5060381;28;45224;-56
2022/05/26 01:04:11;;;;;;;;;0.00;0.00;;;;;17.82;58.69;101990.19;5060511;28;45406;-55
2022/05/26 01:06:46;;;;;;;;;0.75;0.00;;;;;17.87;58.78;101983.69;5060714;28;45236;-53
2022/05/26 01:09:12;;;;;;;;;1.00;0.25;;;;;17.89;58.50;101987.09;5064340;28;45425;-56
2022/05/26 01:11:40;;;;;;;;;0.00;0.00;;;;;17.92;58.87;101982.38;5067664;28;45438;-55
2022/05/26 01:14:34;;;;;;;;;0.75;0.75;;;;;17.94;58.64;101972.50;5062834;28;45639;-56
2022/05/26 01:17:03;;;;;;;;;1.75;1.00;;;;;17.94;58.43;101987.63;5062928;28;45395;-54
2022/05/26 01:20:09;;;;;;;;;0.25;0.25;;;;;17.91;58.47;101990.50;5063882;28;45228;-56
2022/05/26 01:22:43;;;;;;;;;4.75;4.25;;;;;17.89;58.83;101981.75;5041483;28;45362;-55
2022/05/26 01:25:23;;;;;;;;;0.00;0.00;;;;;17.87;58.65;101989.03;5051141;28;45284;-51
2022/05/26 01:28:15;;;;;;;;;0.00;0.00;;;;;17.83;58.83;101988.38;5063566;28;45251;-52
2022/05/26 01:31:34;;;;;;;;;1.75;0.00;;;;;17.73;59.22;102005.97;5053201;28;45443;-55
2022/05/26 01:34:25;;;;;;;;;2.00;0.00;;;;;17.67;59.80;102003.69;5041311;28;45696;-55
2022/05/26 01:37:15;;;;;;;;;0.50;0.00;;;;;17.49;61.51;102004.00;5063377;28;45513;-51
2022/05/26 01:40:12;;;;;;;;;0.75;0.00;;;;;17.38;62.21;102003.00;5063370;28;45370;-55
2022/05/26 01:43:00;;;;;;;;;1.50;0.00;;;;;17.29;62.91;102001.81;5063589;28;45426;-54
2022/05/26 01:45:47;;;;;;;;;0.00;0.00;;;;;17.23;63.35;102000.44;5060228;28;45536;-55
2022/05/26 01:48:54;;;;;;;;;1.75;0.00;;;;;17.21;63.99;101991.69;5063140;28;45406;-55
2022/05/26 01:51:33;;;;;;;;;1.00;0.00;;;;;17.22;64.06;101990.75;5055723;28;45391;-53
2022/05/26 01:54:23;;;;;;;;;1.00;0.00;;;;;17.21;64.30;101993.50;5063388;28;45358;-53
2022/05/26 01:56:59;;;;;;;;;0.00;0.00;;;;;17.20;64.69;101992.63;5063430;28;45294;-53
2022/05/26 01:59:32;;;;;;;;;0.00;0.00;;;;;17.22;64.46;101997.84;5063272;28;46202;-53
2022/05/26 02:02:05;;;;;;;;;0.75;0.00;;;;;17.21;64.21;101999.66;5063080;28;45402;-54
2022/05/26 02:04:42;;;;;;;;;1.00;0.00;;;;;17.22;64.12;102004.06;5063354;28;45305;-55
2022/05/26 02:07:17;;;;;;;;;1.25;0.25;;;;;17.21;64.51;101999.66;5063229;28;45332;-55
2022/05/26 02:09:44;;;;;;;;;4.00;1.00;;;;;17.21;64.53;101999.66;5062809;28;45578;-55
2022/05/26 02:12:33;;;;;;;;;1.00;0.00;;;;;17.20;64.46;101995.31;5066364;28;45371;-54
2022/05/26 02:15:21;;;;;;;;;2.00;1.00;;;;;17.19;64.74;101995.41;5060035;28;45272;-55
2022/05/26 02:17:53;;;;;;;;;2.00;0.00;;;;;17.19;64.56;101990.09;5062726;28;45335;-56
2022/05/26 02:20:32;;;;;;;;;2.25;1.00;;;;;17.18;64.54;101993.72;5062805;28;45394;-56
2022/05/26 02:23:03;;;;;;;;;0.00;0.00;;;;;17.15;64.49;101988.59;5062766;28;45398;-54
2022/05/26 02:25:30;;;;;;;;;0.50;0.00;;;;;17.14;64.51;101997.50;5062971;28;45319;-55
2022/05/26 02:27:57;;;;;;;;;1.00;1.00;;;;;17.12;64.67;102008.28;5062767;28;45240;-54
2022/05/26 02:30:30;;;;;;;;;0.00;0.00;;;;;17.11;64.70;102014.56;5062860;28;46068;-54
2022/05/26 02:32:58;;;;;;;;;1.00;0.00;;;;;17.11;65.23;102019.03;5062421;28;45259;-54
2022/05/26 02:35:28;;;;;;;;;1.00;1.00;;;;;17.10;65.53;102023.50;5062919;28;45343;-52
2022/05/26 02:38:00;;;;;;;;;1.00;1.00;;;;;17.09;65.78;102016.47;5061539;28;45544;-52
2022/05/26 02:40:26;;;;;;;;;1.75;1.00;;;;;17.06;66.08;102027.31;5062392;28;46556;-54
2022/05/26 02:42:59;;;;;;;;;1.00;1.00;;;;;17.03;66.45;102016.88;5061287;28;45268;-55
2022/05/26 02:45:39;;;;;;;;;1.00;1.00;;;;;16.99;66.41;102016.25;5061328;28;45339;-54
2022/05/26 02:48:19;;;;;;;;;3.25;1.50;;;;;16.94;66.82;102014.81;5062332;28;45228;-55
2022/05/26 02:51:26;;;;;;;;;4.00;1.00;;;;;16.90;67.16;102023.94;5062399;28;46110;-53
2022/05/26 02:54:25;;;;;;;;;2.50;1.00;;;;;16.83;67.56;102023.53;5062011;28;45221;-54
2022/05/26 02:57:18;;;;;;;;;1.00;0.00;;;;;16.75;67.71;102020.50;5062297;28;45221;-53
2022/05/26 02:59:57;;;;;;;;;1.00;0.25;;;;;16.71;68.00;102016.31;5062417;28;45227;-53
2022/05/26 03:02:33;;;;;;;;;1.00;1.00;;;;;16.70;68.27;102012.81;5062071;28;45335;-53
2022/05/26 03:05:09;;;;;;;;;1.00;1.00;;;;;16.71;67.95;102022.50;5062096;28;45464;-54
2022/05/26 03:07:39;;;;;;;;;0.00;0.00;;;;;16.70;68.50;102011.97;5062557;28;45481;-53
2022/05/26 03:10:06;;;;;;;;;1.00;1.00;;;;;16.67;68.51;102009.47;5062058;28;45418;-53
2022/05/26 03:12:34;;;;;;;;;1.50;0.75;;;;;16.64;68.97;102009.66;5064564;28;45904;-52
2022/05/26 03:15:01;;;;;;;;;1.75;1.00;;;;;16.62;69.20;102015.06;5062036;28;45314;-50
2022/05/26 03:17:27;;;;;;;;;0.50;0.50;;;;;16.61;69.64;102009.88;5062161;28;45475;-51
2022/05/26 03:19:52;;;;;;;;;1.00;1.00;;;;;16.60;69.61;102022.31;5061919;28;45360;-52
2022/05/26 03:22:18;;;;;;;;;1.00;1.00;;;;;16.60;69.92;102030.28;5061913;28;45354;-53
2022/05/26 03:24:44;;;;;;;;;0.00;0.00;;;;;16.58;70.14;102029.50;5061819;28;45438;-54
2022/05/26 03:27:09;;;;;;;;;1.00;1.00;;;;;16.57;69.70;102027.81;5061992;28;45205;-51
2022/05/26 03:29:35;;;;;;;;;0.00;0.00;;;;;16.52;69.35;102035.25;5061133;28;45608;-52
2022/05/26 03:32:01;;;;;;;;;0.00;0.00;;;;;16.47;69.32;102024.03;5061748;28;46143;-54
2022/05/26 03:42:40;;;;;;;;;0.00;0.00;;;;;16.25;69.02;102029.84;5061617;28;45179;-54
2022/05/26 03:45:07;;;;;;;;;0.50;0.00;;;;;16.25;68.63;102024.53;5061642;28;45217;-52
2022/05/26 03:47:33;;;;;;;;;0.00;0.00;;;;;16.26;68.91;102028.91;5061455;28;45381;-54
2022/05/26 03:49:59;;;;;;;;;1.00;1.00;;;;;16.28;68.83;102035.00;5061702;28;45377;-54
2022/05/26 03:52:24;;;;;;;;;0.00;0.00;;;;;16.31;69.03;102031.28;5061569;28;45232;-55
2022/05/26 03:54:50;;;;;;;;;0.75;0.75;;;;;16.31;68.79;102028.63;5060688;28;45491;-54
2022/05/26 03:57:26;;;;;;;;;1.75;1.50;;;;;16.34;68.99;102031.06;5060152;28;45499;-54
2022/05/26 03:59:52;;;;;;;;;16.50;12.00;;;;;16.36;68.93;102043.34;5060008;28;45371;-53
2022/05/26 04:02:17;;;;;;;;;0.00;0.00;;;;;16.39;68.78;102042.28;5059905;28;45315;-55
2022/05/26 04:04:44;;;;;;;;;0.25;0.00;;;;;16.44;69.25;102042.88;5059939;28;45315;-55
2022/05/26 04:07:10;;;;;;;;;0.00;0.00;;;;;16.47;68.33;102032.88;5060234;28;45390;-55
2022/05/26 04:09:35;;;;;;;;;0.00;0.00;;;;;16.50;68.83;102046.91;5059825;28;45297;-54
2022/05/26 04:12:01;;;;;;;;;3.25;0.00;;;;;16.51;68.91;102059.25;5062258;28;45359;-55
2022/05/26 04:14:26;;;;;;;;;0.00;0.00;;;;;16.53;68.39;102060.03;5059726;28;45283;-54
2022/05/26 04:16:52;;;;;;;;;2.00;0.00;;;;;16.56;68.36;102060.69;5059932;28;45362;-54
2022/05/26 04:19:17;;;;;;;;;19.50;17.75;;;;;16.58;68.89;102065.91;5059612;28;45689;-52
2022/05/26 04:24:27;;;;;;;;;3.00;1.00;;;;;16.62;69.02;102054.13;5059437;28;45405;-55
2022/05/26 04:26:53;;;;;;;;;1.00;1.00;;;;;16.62;69.16;102054.97;5059539;28;45389;-56
2022/05/26 04:29:23;;;;;;;;;0.00;0.00;;;;;16.63;68.84;102055.84;5059519;28;45422;-55
2022/05/26 04:31:49;;;;;;;;;1.00;1.00;;;;;16.61;68.74;102058.59;5059021;28;46173;-56
2022/05/26 04:34:15;;;;;;;;;2.00;0.00;;;;;16.61;68.70;102068.41;5059157;28;45323;-55
2022/05/26 04:36:41;;;;;;;;;1.00;0.00;;;;;16.59;68.80;102068.50;5059550;28;45415;-55
2022/05/26 04:39:06;;;;;;;;;1.00;1.00;;;;;16.57;68.71;102067.72;5059149;28;45228;-56
2022/05/26 04:41:32;;;;;;;;;3.00;0.00;;;;;16.59;69.02;102070.28;5058220;28;46144;-53
2022/05/26 04:43:57;;;;;;;;;1.00;1.00;;;;;16.60;69.00;102077.31;5059302;28;45360;-52
2022/05/26 04:46:23;;;;;;;;;1.50;1.00;;;;;16.58;68.44;102079.22;5059427;28;45507;-55
2022/05/26 04:48:48;;;;;;;;;0.75;0.75;;;;;16.58;68.90;102077.41;5059097;28;45303;-54
2022/05/26 04:51:14;;;;;;;;;1.25;1.25;;;;;16.60;68.62;102082.66;5059040;28;45319;-55
2022/05/26 04:53:39;;;;;;;;;2.00;0.00;;;;;16.64;68.64;102076.16;5013842;28;1291648;-54
2022/05/26 04:56:05;;;;;;;;;1.25;1.00;;;;;16.66;68.34;102079.56;5060771;28;45560;-55
2022/05/26 04:58:30;;;;;;;;;4.50;0.00;;;;;16.67;67.92;102081.31;5060739;28;45276;-53
2022/05/26 05:00:56;;;;;;;;;2.00;0.25;;;;;16.68;67.74;102091.84;5060331;28;45846;-55
2022/05/26 05:03:21;;;;;;;;;1.00;1.00;;;;;16.70;67.70;102092.63;5060373;28;45315;-53
2022/05/26 05:05:47;;;;;;;;;1.25;1.00;;;;;16.72;67.57;102095.19;5060643;28;45423;-53
2022/05/26 05:08:13;;;;;;;;;1.00;1.00;;;;;16.72;67.50;102090.72;5060785;28;45327;-55
2022/05/26 05:10:38;;;;;;;;;3.75;2.75;;;;;16.72;67.78;102096.03;5060347;28;46167;-55
2022/05/26 05:13:04;;;;;;;;;2.00;1.00;;;;;16.73;67.44;102100.41;5064128;28;45442;-54
2022/05/26 05:16:13;;;;;;;;;2.75;2.25;;;;;16.74;67.49;102095.94;5060853;28;45296;-54
2022/05/26 05:18:38;;;;;;;;;1.75;1.00;;;;;16.72;67.16;102092.53;5060302;28;45582;-53
2022/05/26 05:21:09;;;;;;;;;1.00;1.00;;;;;16.70;67.22;102095.28;5060065;28;45456;-53
2022/05/26 05:23:41;;;;;;;;;2.00;0.75;;;;;16.71;67.01;102096.16;5060376;28;45331;-54
2022/05/26 05:26:10;;;;;;;;;2.25;0.75;;;;;16.72;67.33;102090.72;5060209;28;45399;-55
2022/05/26 05:28:40;;;;;;;;;2.50;0.75;;;;;16.76;67.27;102098.53;5060289;28;45457;-53
2022/05/26 05:31:14;;;;;;;;;0.50;0.00;;;;;16.80;67.13;102106.19;5060025;28;46207;-54
2022/05/26 05:33:59;;;;;;;;;0.00;0.00;;;;;16.81;67.43;102117.69;5060198;28;45377;-55
2022/05/26 05:36:31;;;;;;;;;0.50;0.25;;;;;16.82;66.79;102111.41;5060347;28;45469;-53
2022/05/26 05:38:59;;;;;;;;;0.50;0.25;;;;;16.82;66.72;102109.63;5060145;28;45344;-55
2022/05/26 05:41:26;;;;;;;;;3.25;0.25;;;;;16.84;67.03;102112.19;5059890;28;46119;-55
2022/05/26 05:43:52;;;;;;;;;1.25;0.50;;;;;16.85;66.59;102109.44;5060020;28;45332;-54
2022/05/26 05:46:21;;;;;;;;;1.00;1.00;;;;;16.86;66.48;102112.94;5059908;28;45212;-54
2022/05/26 05:48:48;;;;;;;;;7.00;1.00;;;;;16.89;66.83;102113.59;5059870;28;45552;-54
2022/05/26 05:51:14;;;;;;;;;1.00;1.00;;;;;16.90;66.08;102117.97;5059969;28;45915;-53
2022/05/26 05:53:40;;;;;;;;;1.50;1.00;;;;;16.88;66.81;102125.19;5061177;28;45257;-54
2022/05/26 05:56:06;;;;;;;;;2.00;1.00;;;;;16.90;66.74;102122.44;5063394;28;45362;-54
2022/05/26 05:58:31;;;;;;;;;1.00;1.00;;;;;16.91;66.58;102126.84;5063319;28;45328;-53
2022/05/26 06:00:57;;;;;;;;;2.00;1.00;;;;;16.92;66.41;102129.38;5063336;28;45907;-54
2022/05/26 06:03:23;;;;;;;;;1.75;0.75;;;;;16.94;66.43;102132.81;5063151;28;45272;-54
2022/05/26 06:05:49;;;;;;;;;0.75;0.75;;;;;16.98;66.06;102134.31;5063489;28;45318;-55
2022/05/26 06:08:15;;;;;;;;;3.00;0.50;;;;;17.00;65.91;102134.22;5063391;28;45231;-54
2022/05/26 06:10:40;;;;;;;;;1.00;1.00;;;;;17.02;65.74;102145.63;5063033;28;46242;-55
2022/05/26 06:13:06;;;;;;;;;2.75;0.50;;;;;17.00;65.50;102137.75;5065636;28;45228;-55
2022/05/26 06:15:33;;;;;;;;;1.75;1.00;;;;;16.98;65.58;102142.31;5063318;28;45370;-53
2022/05/26 06:17:59;;;;;;;;;2.00;0.50;;;;;17.00;65.54;102139.56;5062792;28;45584;-53
2022/05/26 06:20:25;;;;;;;;;0.75;0.00;;;;;17.01;65.35;102149.25;5062921;28;46001;-55
2022/05/26 06:22:50;;;;;;;;;0.75;0.25;;;;;17.01;65.48;102150.09;5062641;28;45311;-54
2022/05/26 06:25:19;;;;;;;;;2.00;0.75;;;;;17.05;65.67;102160.53;5063198;28;45322;-51
2022/05/26 06:30:30;;;;;;;;;1.75;0.50;;;;;17.04;65.87;102159.69;5062917;28;45640;-54
2022/05/26 06:38:38;;;;;;;;;1.00;1.00;;;;;16.99;67.30;102183.09;5062868;28;45421;-54
2022/05/26 06:43:51;;;;;;;;;0.50;0.00;;;;;16.98;67.41;102186.69;5062609;28;45351;-53
2022/05/26 06:46:16;;;;;;;;;1.25;0.00;;;;;16.99;67.81;102191.94;5062538;28;45304;-50
2022/05/26 06:48:42;;;;;;;;;1.75;1.00;;;;;17.05;67.70;102188.00;5062390;28;45396;-54
2022/05/26 06:51:08;;;;;;;;;2.25;1.00;;;;;17.17;67.46;102189.06;5062472;28;45597;-51
2022/05/26 06:53:34;;;;;;;;;1.50;0.00;;;;;17.22;66.84;102184.28;5062308;28;45235;-54
2022/05/26 06:55:59;;;;;;;;;0.00;0.00;;;;;17.27;66.72;102188.34;5062609;28;45275;-52
2022/05/26 06:58:26;;;;;;;;;0.00;0.00;;;;;17.33;66.21;102195.09;5062848;28;45349;-55
2022/05/26 07:00:53;;;;;;;;;0.00;0.00;;;;;17.39;66.29;102192.06;5062138;28;46417;-53
2022/05/26 07:03:18;;;;;;;;;0.25;0.25;;;;;17.40;65.95;102192.91;5062276;28;45276;-55
2022/05/26 07:05:44;;;;;;;;;3.00;1.00;;;;;17.37;66.56;102196.59;5061295;28;45506;-53
2022/05/26 07:08:09;;;;;;;;;0.25;0.25;;;;;17.33;66.46;102196.91;5062352;28;45323;-52
2022/05/26 07:10:35;;;;;;;;;0.00;0.00;;;;;17.28;67.02;102202.53;5062134;28;45249;-54
2022/05/26 07:13:01;;;;;;;;;1.00;1.00;;;;;17.18;67.33;102204.94;5065184;28;45418;-54
2022/05/26 07:15:27;;;;;;;;;0.25;0.25;;;;;17.05;67.79;102216.44;5062713;28;45343;-53
2022/05/26 07:17:52;;;;;;;;;0.00;0.00;;;;;16.98;68.47;102211.53;5062204;28;45256;-54
2022/05/26 07:20:18;;;;;;;;;0.00;0.00;;;;;16.97;68.37;102217.78;5062150;28;45599;-52
2022/05/26 07:22:44;;;;;;;;;0.00;0.00;;;;;16.96;68.49;102216.06;5062155;28;45430;-55
2022/05/26 07:25:10;;;;;;;;;1.00;0.00;;;;;16.98;68.40;102223.94;5062181;28;45422;-51
2022/05/26 07:27:36;;;;;;;;;0.00;0.00;;;;;17.02;68.46;102214.84;5062388;28;45231;-54
2022/05/26 07:30:03;;;;;;;;;2.50;0.00;;;;;17.12;68.38;102217.78;5062017;28;45234;-51
2022/05/26 07:32:28;;;;;;;;;0.00;0.00;;;;;17.20;68.31;102226.97;5061748;28;45563;-50
2022/05/26 07:34:54;;;;;;;;;1.00;0.00;;;;;17.23;68.22;102232.13;5062162;28;45379;-54
2022/05/26 07:42:48;;;;;;;;;0.00;0.00;;;;;17.29;67.41;102234.38;5061962;28;45384;-51
2022/05/26 07:45:15;;;;;;;;;1.00;1.00;;;;;17.27;67.13;102246.94;5061869;28;45506;-53
2022/05/26 07:47:41;;;;;;;;;3.00;1.75;;;;;17.20;66.57;102245.63;5061963;28;45374;-55
2022/05/26 07:50:11;;;;;;;;;2.50;2.00;;;;;17.12;65.58;102239.94;5061713;28;45320;-54
2022/05/26 07:52:36;;;;;;;;;2.50;2.00;;;;;17.03;65.87;102244.03;5061816;28;45349;-58
2022/05/26 07:55:03;;;;;;;;;3.00;3.00;;;;;16.96;66.18;102265.78;5061470;28;45397;-55
2022/05/26 07:57:28;;;;;;;;;4.50;3.50;;;;;16.83;67.19;102259.53;5061923;28;45482;-55
2022/05/26 07:59:57;;;;;;;;;2.00;2.00;;;;;16.77;67.78;102263.41;5061525;28;45933;-55
2022/05/26 08:02:22;;;;;;;;;2.00;2.00;;;;;16.71;68.49;102261.13;5061469;28;45297;-54
2022/05/26 08:04:48;;;;;;;;;5.00;3.00;;;;;16.69;68.46;102271.00;5061479;28;45268;-53
2022/05/26 08:07:15;;;;;;;;;5.50;4.00;;;;;16.71;69.02;102277.94;5061803;28;45264;-53
2022/05/26 08:09:41;;;;;;;;;2.50;2.50;;;;;16.72;68.52;102282.31;5061293;28;45224;-50
2022/05/26 08:12:11;;;;;;;;;3.00;3.00;;;;;16.72;68.70;102271.66;5064114;28;45253;-55
2022/05/26 08:14:38;;;;;;;;;5.75;3.75;;;;;16.73;68.66;102280.50;5061748;28;45228;-55
2022/05/26 08:17:04;;;;;;;;;5.00;5.00;;;;;16.74;68.69;102291.06;5060940;28;45368;-53
2022/05/26 08:19:29;;;;;;;;;3.00;2.25;;;;;16.71;69.03;102288.59;5061129;28;45167;-54
2022/05/26 08:21:55;;;;;;;;;5.00;4.00;;;;;16.71;69.34;102288.59;5061203;28;45204;-55
2022/05/26 08:24:22;;;;;;;;;5.50;3.75;;;;;16.78;68.72;102296.22;5059873;28;45358;-55
2022/05/26 08:26:48;;;;;;;;;2.00;2.00;;;;;16.82;68.73;102293.25;5061255;28;45466;-54
2022/05/26 08:29:13;;;;;;;;;5.75;4.00;;;;;16.91;68.62;102283.88;5061047;28;45460;-54
2022/05/26 08:31:39;;;;;;;;;2.25;2.25;;;;;17.02;67.81;102284.06;5060951;28;45307;-53
2022/05/26 08:34:05;;;;;;;;;4.50;3.00;;;;;17.13;66.93;102280.72;5061270;28;45304;-54
2022/05/26 08:36:32;;;;;;;;;2.50;2.50;;;;;17.25;66.04;102285.28;5061377;28;45467;-53
2022/05/26 08:38:58;;;;;;;;;2.75;2.00;;;;;17.33;65.82;102283.00;5060833;28;46114;-54
2022/05/26 08:41:35;;;;;;;;;6.75;4.00;;;;;17.39;65.32;102289.75;5060882;28;45160;-52
2022/05/26 08:44:28;;;;;;;;;2.00;2.00;;;;;17.46;65.46;102283.94;5061089;28;45169;-54
2022/05/26 08:47:07;;;;;;;;;4.50;3.00;;;;;17.53;64.98;102287.06;5057675;28;45272;-52
2022/05/26 08:49:53;;;;;;;;;2.00;2.00;;;;;17.55;64.87;102287.84;5061101;28;45451;-54
2022/05/26 08:52:28;;;;;;;;;3.00;3.00;;;;;17.54;64.51;102291.44;5060596;28;45381;-54
2022/05/26 08:55:01;;;;;;;;;4.00;4.00;;;;;17.52;64.33;102299.53;5060747;28;45315;-55
2022/05/26 08:58:01;;;;;;;;;4.00;4.00;;;;;17.61;64.60;102298.06;5061072;28;45261;-53
2022/05/26 09:00:27;;;;;;;;;6.00;2.25;;;;;17.75;64.32;102297.22;5053199;28;45420;-51
2022/05/26 09:02:58;;;;;;;;;4.50;4.00;;;;;17.85;64.30;102288.56;5060538;28;45314;-55
2022/05/26 09:05:23;;;;;;;;;6.00;5.75;;;;;17.96;64.38;102303.84;5060641;28;45263;-54
2022/05/26 09:13:39;;;;;;;;;4.75;4.75;;;;;18.07;62.81;102305.78;5047417;28;45369;-55
2022/05/26 09:16:06;;;;;;;;;6.00;3.50;;;;;18.08;62.43;102307.50;5060337;28;45324;-55
2022/05/26 09:18:33;;;;;;;;;4.00;3.25;;;;;18.14;62.15;102307.94;5060297;28;45262;-54
2022/05/26 09:21:12;;;;;;;;;5.50;4.00;;;;;18.24;62.23;102308.19;5060198;28;46074;-55
2022/05/26 09:23:42;;;;;;;;;4.00;3.00;;;;;18.28;62.36;102308.84;5060418;28;45397;-53
2022/05/26 09:26:11;;;;;;;;;6.50;4.00;;;;;18.31;61.77;102312.16;5060300;28;45326;-52
2022/05/26 09:28:46;;;;;;;;;7.00;5.00;;;;;18.34;61.47;102313.78;5062017;28;45240;-53
2022/05/26 09:31:29;;;;;;;;;4.50;4.50;;;;;18.35;61.71;102321.69;5063671;28;45431;-54
2022/05/26 09:34:02;;;;;;;;;3.00;3.00;;;;;18.36;61.09;102314.53;5063667;28;45232;-55
2022/05/26 09:36:31;;;;;;;;;2.00;2.00;;;;;18.37;60.46;102310.91;5063971;28;45144;-53
2022/05/26 09:38:57;;;;;;;;;2.00;2.00;;;;;18.38;60.38;102318.78;5063661;28;45477;-55
2022/05/26 09:41:24;;;;;;;;;2.00;2.00;;;;;18.40;59.67;102329.34;5063591;28;46066;-54
2022/05/26 09:43:59;;;;;;;;;2.00;2.00;;;;;18.42;59.34;102330.13;5063691;28;45405;-55
2022/05/26 09:46:26;;;;;;;;;2.75;2.50;;;;;18.47;59.44;102337.81;5063656;28;45320;-54
2022/05/26 09:49:00;;;;;;;;;2.50;2.50;;;;;18.54;59.50;102331.09;5063565;28;45465;-55
2022/05/26 09:51:33;;;;;;;;;2.50;2.50;;;;;18.64;59.37;102333.06;5063639;28;45260;-54
2022/05/26 09:53:59;;;;;;;;;4.00;3.25;;;;;18.73;59.40;102325.44;5063187;28;45362;-53
2022/05/26 09:56:32;;;;;;;;;2.50;2.00;;;;;18.84;59.20;102328.19;5063442;28;45346;-52
2022/05/26 09:58:58;;;;;;;;;3.75;2.00;;;;;18.93;59.00;102332.91;5063873;28;45276;-53
2022/05/26 10:01:24;;;;;;;;;3.00;3.00;;;;;18.99;58.74;102331.63;5062993;28;45992;-55
2022/05/26 10:03:49;;;;;;;;;3.00;3.00;;;;;19.04;58.15;102332.16;5063490;28;45379;-55
2022/05/26 10:06:17;;;;;;;;;5.50;3.25;;;;;19.14;58.06;102338.59;5063399;28;45260;-52
2022/05/26 10:09:02;;;;;;;;;3.50;3.00;;;;;19.28;56.98;102335.81;5063543;28;45617;-54
2022/05/26 10:11:57;;;;;;;;;3.00;2.00;;;;;19.35;56.89;102336.19;5065129;28;46121;-53
2022/05/26 10:14:31;;;;;;;;;4.00;3.00;;;;;19.29;56.24;102340.19;5054378;28;45526;-53
2022/05/26 10:17:09;;;;;;;;;2.00;1.50;;;;;19.29;56.01;102333.97;5063000;28;45284;-54
2022/05/26 10:19:57;;;;;;;;;4.00;2.25;;;;;19.29;56.00;102339.31;5063091;28;45470;-55
2022/05/26 10:22:56;;;;;;;;;3.00;3.00;;;;;19.28;56.75;102343.81;5062925;28;45297;-54
2022/05/26 10:25:45;;;;;;;;;2.00;2.00;;;;;19.27;55.71;102343.91;5052649;28;45377;-54
2022/05/26 10:28:32;;;;;;;;;4.75;4.00;;;;;19.29;55.88;102348.19;5062998;28;45252;-53
2022/05/26 10:31:08;;;;;;;;;3.00;3.00;;;;;19.34;55.98;102347.84;5062842;28;45378;-55
2022/05/26 10:33:33;;;;;;;;;5.25;5.25;;;;;19.33;56.15;102346.16;5062883;28;46160;-54
2022/05/26 10:36:14;;;;;;;;;16.25;13.00;;;;;19.40;56.37;102339.41;5062684;28;45323;-55
2022/05/26 10:39:07;;;;;;;;;4.50;4.50;;;;;19.63;56.20;102346.66;5062895;28;45298;-54
2022/05/26 10:41:39;;;;;;;;;3.00;3.00;;;;;19.77;56.06;102335.84;5062553;28;45389;-53
2022/05/26 10:44:08;;;;;;;;;1.75;1.75;;;;;19.86;55.81;102331.63;5062451;28;46385;-55
2022/05/26 10:46:39;;;;;;;;;2.75;2.75;;;;;19.88;55.47;102340.38;5062407;28;45343;-55
2022/05/26 10:49:15;;;;;;;;;1.00;1.00;;;;;19.89;55.14;102333.22;5062542;28;45495;-54
2022/05/26 10:51:43;;;;;;;;;1.50;1.50;;;;;19.87;55.34;102349.38;5062559;28;45338;-54
2022/05/26 10:54:15;;;;;;;;;3.00;1.00;;;;;19.85;55.22;102342.44;5061663;28;45277;-54
2022/05/26 10:56:59;;;;;;;;;2.50;2.00;;;;;19.77;54.48;102335.84;5062256;28;45366;-55
2022/05/26 10:59:36;;;;;;;;;3.75;3.50;;;;;19.74;54.72;102337.84;5062690;28;45334;-53
2022/05/26 11:02:33;;;;;;;;;13.50;10.00;;;;;19.85;54.17;102339.78;5062101;28;45319;-54
2022/05/26 11:05:09;;;;;;;;;1.00;1.00;;;;;19.86;54.38;102342.34;5059919;28;45189;-51
2022/05/26 11:07:54;;;;;;;;;1.50;1.00;;;;;19.83;54.37;102344.34;5062181;28;45201;-53
2022/05/26 11:10:24;;;;;;;;;1.00;1.00;;;;;19.79;53.49;102347.25;5062272;28;45318;-55
2022/05/26 11:12:59;;;;;;;;;2.00;1.00;;;;;19.77;53.95;102351.88;5066151;28;45417;-54
2022/05/26 11:18:27;;;;;;;;;1.00;1.00;;;;;19.68;54.63;102341.00;5062185;28;45435;-55
2022/05/26 11:20:54;;;;;;;;;1.00;1.00;;;;;19.64;54.40;102334.16;5062284;28;45338;-55
2022/05/26 11:23:29;;;;;;;;;1.00;1.00;;;;;19.65;54.80;102323.34;5062242;28;45304;-52
2022/05/26 11:26:00;;;;;;;;;8.25;7.50;;;;;19.68;54.99;102327.63;5061832;28;45549;-53
2022/05/26 11:28:47;;;;;;;;;2.00;2.00;;;;;19.74;55.17;102332.50;5062163;28;45228;-54
2022/05/26 11:37:29;;;;;;;;;1.00;1.00;;;;;19.74;54.84;102324.50;5061824;28;45503;-53
2022/05/26 11:40:02;;;;;;;;;1.00;1.00;;;;;19.83;54.53;102326.53;5061718;28;45260;-55
2022/05/26 11:42:27;;;;;;;;;4.00;3.00;;;;;20.00;54.58;102314.56;5061681;28;45331;-52
2022/05/26 11:45:08;;;;;;;;;3.00;1.25;;;;;20.17;54.02;102316.00;5062051;28;45244;-55
2022/05/26 11:48:00;;;;;;;;;4.00;3.25;;;;;20.22;54.04;102319.16;5061350;28;46079;-53
2022/05/26 11:50:28;;;;;;;;;1.00;1.00;;;;;20.35;53.70;102318.13;5061088;28;45264;-53
2022/05/26 11:52:54;;;;;;;;;1.75;1.00;;;;;20.57;53.54;102311.19;5061903;28;45463;-55
2022/05/26 11:55:49;;;;;;;;;1.00;1.00;;;;;20.60;52.85;102314.47;5061369;28;45418;-55
2022/05/26 11:58:36;;;;;;;;;0.00;0.00;;;;;20.72;52.98;102317.19;5061471;28;45471;-56
2022/05/26 12:01:25;;;;;;;;;0.75;0.00;;;;;20.63;52.76;102321.44;5061496;28;45493;-54
2022/05/26 12:03:56;;;;;;;;;1.75;0.00;;;;;20.71;52.55;102315.47;5061571;28;45302;-56
2022/05/26 12:06:37;;;;;;;;;1.00;1.00;;;;;20.84;52.34;102309.03;5061562;28;45256;-52
2022/05/26 12:09:21;;;;;;;;;1.75;0.00;;;;;21.01;52.22;102305.03;5061432;28;46339;-53
2022/05/26 12:11:58;;;;;;;;;3.00;3.00;;;;;21.21;51.77;102294.59;5064824;28;45445;-56
2022/05/26 12:14:29;;;;;;;;;1.00;1.00;;;;;21.36;51.04;102296.94;5061538;28;45429;-56
2022/05/26 12:17:32;;;;;;;;;0.00;0.00;;;;;21.35;51.28;102300.59;5061353;28;45415;-54
2022/05/26 12:20:10;;;;;;;;;0.00;0.00;;;;;21.27;50.48;102294.09;5061139;28;46252;-54
2022/05/26 12:22:56;;;;;;;;;1.00;1.00;;;;;21.18;50.74;102293.88;5059676;28;45232;-52
2022/05/26 12:25:34;;;;;;;;;1.00;1.00;;;;;21.18;50.97;102298.38;5060773;28;45254;-54
2022/05/26 12:28:26;;;;;;;;;1.00;0.00;;;;;21.19;50.48;102297.41;5061235;28;45545;-55
2022/05/26 12:31:05;;;;;;;;;0.00;0.00;;;;;21.31;50.02;102299.13;5060635;28;45181;-55